createdAt,value
2018-11-12T00:01:43.262Z,85.03
2018-11-12T00:04:11.876Z,85.00
2018-11-12T00:06:40.430Z,78.30
2018-11-12T00:09:09.735Z,79.43
2018-11-12T00:11:38.396Z,64.20
2018-11-12T00:14:07.700Z,66.83
2018-11-12T00:16:36.255Z,59.30
2018-11-12T00:19:04.846Z,59.37
2018-11-12T00:21:33.947Z,59.50
2018-11-12T00:24:02.533Z,66.90
2018-11-12T00:26:31.081Z,60.07
2018-11-12T00:28:59.656Z,63.67
2018-11-12T00:31:28.141Z,67.63
2018-11-12T00:33:56.868Z,70.07
2018-11-12T00:36:25.463Z,72.63
2018-11-12T00:38:53.957Z,69.20
2018-11-12T00:41:22.491Z,61.23
2018-11-12T00:43:50.995Z,62.00
2018-11-12T00:46:20.282Z,56.77
2018-11-12T00:48:49.371Z,52.03
2018-11-12T00:51:17.912Z,55.67
2018-11-12T00:53:46.530Z,59.17
2018-11-12T00:56:15.024Z,60.97
2018-11-12T00:58:43.566Z,56.27
2018-11-12T01:01:12.102Z,53.60
2018-11-12T01:03:40.612Z,56.13
2018-11-12T01:06:09.198Z,56.73
2018-11-12T01:08:38.489Z,49.93
2018-11-12T01:11:07.157Z,49.67
2018-11-12T01:13:35.680Z,50.90
2018-11-12T01:16:04.250Z,48.73
2018-11-12T01:18:32.780Z,46.43
2018-11-12T01:21:01.309Z,47.43
2018-11-12T01:23:29.807Z,44.40
2018-11-12T01:25:58.314Z,46.30
2018-11-12T01:28:27.515Z,46.43
2018-11-12T01:31:01.421Z,46.80
2018-11-12T01:33:30.030Z,45.80
2018-11-12T01:35:58.638Z,48.87
2018-11-12T01:38:27.333Z,50.63
2018-11-12T01:40:55.869Z,50.40
2018-11-12T01:43:24.528Z,53.30
2018-11-12T01:45:53.229Z,51.80
2018-11-12T01:48:21.918Z,54.33
2018-11-12T01:50:50.560Z,51.97
2018-11-12T01:53:19.170Z,52.93
2018-11-12T01:55:47.799Z,50.27
2018-11-12T01:58:16.337Z,48.13
2018-11-12T02:00:44.886Z,46.90
2018-11-12T02:03:13.427Z,47.23
2018-11-12T02:05:42.185Z,50.93
2018-11-12T02:08:10.794Z,44.93
2018-11-12T02:10:40.023Z,48.57
2018-11-12T02:13:08.562Z,51.03
2018-11-12T02:15:37.127Z,49.27
2018-11-12T02:18:05.932Z,44.47
2018-11-12T02:20:34.473Z,45.47
2018-11-12T02:23:03.188Z,48.93
2018-11-12T02:25:31.741Z,47.00
2018-11-12T02:28:00.269Z,44.87
2018-11-12T02:30:34.226Z,45.57
2018-11-12T02:33:02.831Z,40.50
2018-11-12T02:35:31.407Z,41.53
2018-11-12T02:37:59.924Z,37.83
2018-11-12T02:40:28.453Z,39.90
2018-11-12T02:42:56.973Z,37.73
2018-11-12T02:45:25.517Z,36.17
2018-11-12T02:47:53.734Z,37.90
2018-11-12T02:50:22.271Z,40.93
2018-11-12T02:52:50.805Z,34.67
2018-11-12T02:55:19.388Z,38.97
2018-11-12T02:57:48.279Z,40.80
2018-11-12T03:00:18.918Z,38.93
2018-11-12T03:02:47.637Z,40.23
2018-11-12T03:05:16.182Z,43.17
2018-11-12T03:07:45.021Z,42.00
2018-11-12T03:10:16.661Z,46.37
2018-11-12T03:12:45.201Z,43.23
2018-11-12T03:15:14.815Z,41.03
2018-11-12T03:17:44.099Z,41.97
2018-11-12T03:20:15.967Z,38.77
2018-11-12T03:22:45.872Z,42.67
2018-11-12T03:25:15.573Z,43.60
2018-11-12T03:27:44.851Z,41.30
2018-11-12T03:30:15.423Z,38.30
2018-11-12T03:32:44.886Z,41.70
2018-11-12T03:35:14.029Z,43.63
2018-11-12T03:37:43.845Z,63.27
2018-11-12T03:40:14.459Z,60.00
2018-11-12T03:42:43.155Z,64.53
2018-11-12T03:45:14.533Z,66.70
2018-11-12T03:47:43.114Z,80.00
2018-11-12T03:50:13.872Z,69.90
2018-11-12T03:52:42.938Z,83.80
2018-11-12T03:55:12.615Z,80.00
2018-11-12T03:57:41.420Z,62.07
2018-11-12T04:00:13.332Z,59.23
2018-11-12T04:02:42.167Z,46.87
2018-11-12T04:05:11.145Z,48.20
2018-11-12T04:07:40.444Z,61.33
2018-11-12T04:10:10.974Z,57.03
2018-11-12T04:12:39.673Z,48.07
2018-11-12T04:15:10.728Z,50.63
2018-11-12T04:17:39.356Z,48.40
2018-11-12T04:20:09.417Z,53.93
2018-11-12T04:22:38.299Z,46.77
2018-11-12T04:25:08.202Z,45.40
2018-11-12T04:27:36.886Z,47.10
2018-11-12T04:30:08.724Z,52.90
2018-11-12T04:32:38.034Z,68.37
2018-11-12T04:35:06.971Z,62.83
2018-11-12T04:37:35.501Z,65.77
2018-11-12T04:40:04.149Z,63.50
2018-11-12T04:42:32.671Z,59.90
2018-11-12T04:45:01.217Z,64.10
2018-11-12T04:47:29.742Z,59.57
2018-11-12T04:49:58.431Z,69.40
2018-11-12T04:52:26.990Z,61.00
2018-11-12T04:54:55.952Z,62.50
2018-11-12T04:57:24.471Z,59.80
2018-11-12T04:59:52.990Z,61.30
2018-11-12T05:02:21.763Z,64.03
2018-11-12T05:04:50.543Z,55.97
2018-11-12T05:07:19.306Z,53.87
2018-11-12T05:09:47.916Z,51.90
2018-11-12T05:12:16.640Z,56.03
2018-11-12T05:14:45.146Z,57.03
2018-11-12T05:17:13.797Z,52.23
2018-11-12T05:19:42.567Z,54.60
2018-11-12T05:22:11.112Z,55.53
2018-11-12T05:24:40.033Z,56.30
2018-11-12T05:27:08.811Z,54.67
2018-11-12T05:29:37.403Z,55.73
2018-11-12T05:32:05.999Z,48.00
2018-11-12T05:34:34.736Z,51.92
2018-11-12T05:37:03.279Z,43.07
2018-11-12T05:39:31.797Z,43.77
2018-11-12T05:42:00.967Z,42.50
2018-11-12T05:44:29.483Z,43.50
2018-11-12T05:46:58.295Z,40.87
2018-11-12T05:49:26.874Z,39.13
2018-11-12T05:51:55.475Z,38.80
2018-11-12T05:54:24.038Z,39.23
2018-11-12T05:56:53.063Z,37.13
2018-11-12T05:59:21.591Z,36.50
2018-11-12T06:01:51.290Z,37.07
2018-11-12T06:04:19.915Z,38.87
2018-11-12T06:06:48.696Z,36.70
2018-11-12T06:09:17.628Z,42.07
2018-11-12T06:11:46.695Z,48.63
2018-11-12T06:14:15.558Z,44.33
2018-11-12T06:16:44.131Z,42.73
2018-11-12T06:19:12.816Z,40.77
2018-11-12T06:21:41.339Z,37.90
2018-11-12T06:24:09.871Z,38.07
2018-11-12T06:26:38.446Z,32.87
2018-11-12T06:29:07.167Z,39.67
2018-11-12T06:31:36.304Z,36.53
2018-11-12T06:34:05.249Z,39.47
2018-11-12T06:36:34.040Z,36.87
2018-11-12T06:39:02.652Z,36.77
2018-11-12T06:41:31.201Z,42.30
2018-11-12T06:43:59.711Z,32.53
2018-11-12T06:46:28.224Z,32.90
2018-11-12T06:48:56.878Z,28.53
2018-11-12T06:51:26.069Z,26.83
2018-11-12T06:53:54.737Z,28.63
2018-11-12T06:56:23.615Z,26.80
2018-11-12T06:58:52.397Z,24.77
2018-11-12T07:01:21.033Z,22.23
2018-11-12T07:03:49.677Z,22.90
2018-11-12T07:06:18.282Z,20.77
2018-11-12T07:08:47.314Z,20.37
2018-11-12T07:11:16.190Z,20.47
2018-11-12T07:13:44.883Z,19.90
2018-11-12T07:16:13.487Z,18.53
2018-11-12T07:18:42.630Z,20.43
2018-11-12T07:21:11.249Z,17.77
2018-11-12T07:23:40.199Z,16.37
2018-11-12T07:26:08.895Z,17.37
2018-11-12T07:28:37.954Z,16.27
2018-11-12T07:31:06.670Z,16.57
2018-11-12T07:33:35.331Z,16.03
2018-11-12T07:36:04.008Z,15.97
2018-11-12T07:38:32.605Z,15.87
2018-11-12T07:41:01.418Z,14.43
2018-11-12T07:43:30.203Z,13.80
2018-11-12T07:45:58.922Z,15.47
2018-11-12T07:48:27.771Z,14.70
2018-11-12T07:50:56.559Z,14.10
2018-11-12T07:53:25.453Z,15.10
2018-11-12T07:55:54.279Z,15.33
2018-11-12T07:58:23.141Z,15.67
2018-11-12T08:00:52.010Z,14.50
2018-11-12T08:03:20.707Z,14.90
2018-11-12T08:05:49.654Z,16.80
2018-11-12T08:08:18.496Z,16.27
2018-11-12T08:10:47.202Z,17.53
2018-11-12T08:13:15.880Z,18.27
2018-11-12T08:15:45.059Z,15.30
2018-11-12T08:18:13.686Z,15.97
2018-11-12T08:20:42.447Z,17.53
2018-11-12T08:23:11.661Z,17.43
2018-11-12T08:25:40.589Z,16.97
2018-11-12T08:28:09.487Z,17.53
2018-11-12T08:30:38.171Z,19.00
2018-11-12T08:33:07.043Z,19.23
2018-11-12T08:35:35.872Z,17.97
2018-11-12T08:38:05.453Z,16.60
2018-11-12T08:40:35.070Z,18.53
2018-11-12T08:43:03.631Z,18.97
2018-11-12T08:45:32.772Z,18.23
2018-11-12T08:48:01.994Z,18.83
2018-11-12T08:50:31.478Z,17.63
2018-11-12T08:53:00.293Z,17.07
2018-11-12T08:55:30.658Z,17.40
2018-11-12T08:58:01.075Z,20.60
2018-11-12T09:00:30.122Z,18.00
2018-11-12T09:02:59.191Z,17.63
2018-11-12T09:05:30.163Z,18.50
2018-11-12T09:08:00.349Z,18.60
2018-11-12T09:10:31.710Z,21.40
2018-11-12T09:13:00.653Z,20.07
2018-11-12T09:15:29.288Z,18.60
2018-11-12T09:17:58.044Z,21.17
2018-11-12T09:20:27.898Z,24.00
2018-11-12T09:22:57.376Z,19.70
2018-11-12T09:25:27.322Z,18.37
2018-11-12T09:27:56.669Z,21.17
2018-11-12T09:30:26.704Z,18.57
2018-11-12T09:32:55.528Z,20.13
2018-11-12T09:35:25.317Z,19.97
2018-11-12T09:37:54.706Z,19.37
2018-11-12T09:40:29.645Z,18.13
2018-11-12T09:42:58.385Z,18.60
2018-11-12T09:45:26.951Z,20.03
2018-11-12T09:47:55.670Z,18.53
2018-11-12T09:50:25.307Z,19.87
2018-11-12T09:52:55.107Z,19.20
2018-11-12T09:55:25.276Z,17.97
2018-11-12T09:57:56.570Z,20.57
2018-11-12T10:00:25.457Z,19.27
2018-11-12T10:02:54.699Z,17.77
2018-11-12T10:05:23.895Z,17.03
2018-11-12T10:07:55.163Z,18.67
2018-11-12T10:10:37.543Z,18.77
2018-11-12T10:13:08.033Z,18.77
2018-11-12T10:15:35.919Z,19.13
2018-11-12T10:18:03.787Z,16.90
2018-11-12T10:20:30.707Z,19.00
2018-11-12T10:22:59.340Z,18.03
2018-11-12T10:25:27.945Z,18.17
2018-11-12T10:27:56.468Z,18.07
2018-11-12T10:30:25.062Z,17.00
2018-11-12T10:32:53.596Z,17.13
2018-11-12T10:35:22.447Z,17.03
2018-11-12T10:37:51.022Z,18.20
2018-11-12T10:40:21.012Z,16.03
2018-11-12T10:42:49.656Z,17.70
2018-11-12T10:45:18.500Z,15.17
2018-11-12T10:47:48.097Z,15.53
2018-11-12T10:50:16.683Z,16.70
2018-11-12T10:52:45.364Z,19.07
2018-11-12T10:55:16.078Z,16.60
2018-11-12T10:57:44.986Z,16.03
2018-11-12T11:00:30.112Z,16.70
2018-11-12T11:03:05.217Z,18.27
2018-11-12T11:05:33.987Z,15.57
2018-11-12T11:08:02.609Z,14.63
2018-11-12T11:10:32.262Z,15.17
2018-11-12T11:13:02.092Z,14.13
2018-11-12T11:15:31.453Z,15.17
2018-11-12T11:17:59.839Z,16.37
2018-11-12T11:20:28.539Z,14.90
2018-11-12T11:22:57.209Z,13.47
2018-11-12T11:25:25.757Z,15.20
2018-11-12T11:27:54.256Z,13.00
2018-11-12T11:30:22.816Z,14.20
2018-11-12T11:32:51.359Z,13.03
2018-11-12T11:35:20.545Z,14.17
2018-11-12T11:37:49.629Z,12.93
2018-11-12T11:40:21.428Z,12.47
2018-11-12T11:42:49.778Z,11.93
2018-11-12T11:45:18.979Z,11.97
2018-11-12T11:47:48.641Z,13.70
2018-11-12T11:50:18.454Z,11.73
2018-11-12T11:52:47.021Z,12.43
2018-11-12T11:55:16.992Z,12.67
2018-11-12T11:57:46.135Z,12.27
2018-11-12T12:00:19.672Z,11.60
2018-11-12T12:02:49.346Z,12.00
2018-11-12T12:05:18.710Z,11.93
2018-11-12T12:07:47.616Z,11.20
2018-11-12T12:10:16.797Z,13.77
2018-11-12T12:12:47.426Z,11.77
2018-11-12T12:15:17.396Z,13.63
2018-11-12T12:17:46.022Z,11.77
2018-11-12T12:20:16.036Z,14.37
2018-11-12T12:22:44.613Z,11.87
2018-11-12T12:25:15.011Z,12.43
2018-11-12T12:27:44.132Z,12.03
2018-11-12T12:30:17.943Z,11.97
2018-11-12T12:32:47.330Z,11.80
2018-11-12T12:35:16.049Z,11.63
2018-11-12T12:37:45.243Z,12.80
2018-11-12T12:40:15.060Z,12.33
2018-11-12T12:42:43.688Z,13.33
2018-11-12T12:45:14.587Z,12.07
2018-11-12T12:47:43.593Z,15.50
2018-11-12T12:50:13.832Z,11.80
2018-11-12T12:52:42.543Z,11.67
2018-11-12T12:55:11.995Z,17.33
2018-11-12T12:57:41.258Z,13.53
2018-11-12T13:00:16.119Z,11.97
2018-11-12T13:02:44.709Z,16.07
2018-11-12T13:05:13.325Z,12.57
2018-11-12T13:07:42.137Z,12.47
2018-11-12T13:10:12.426Z,13.33
2018-11-12T13:12:41.121Z,13.03
2018-11-12T13:15:11.570Z,12.27
2018-11-12T13:17:40.278Z,13.13
2018-11-12T13:20:10.271Z,13.77
2018-11-12T13:22:38.945Z,14.37
2018-11-12T13:25:12.706Z,12.17
2018-11-12T13:27:41.664Z,12.80
2018-11-12T13:30:12.706Z,11.13
2018-11-12T13:32:42.388Z,12.40
2018-11-12T13:35:12.428Z,15.73
2018-11-12T13:37:41.014Z,11.37
2018-11-12T13:40:12.559Z,11.80
2018-11-12T13:42:42.073Z,17.40
2018-11-12T13:45:10.870Z,12.80
2018-11-12T13:47:39.452Z,12.60
2018-11-12T13:50:11.493Z,15.37
2018-11-12T13:52:40.131Z,15.77
2018-11-12T13:55:17.054Z,13.70
2018-11-12T13:57:46.723Z,12.50
2018-11-12T14:00:17.538Z,13.73
2018-11-12T14:02:47.012Z,19.73
2018-11-12T14:05:17.058Z,15.73
2018-11-12T14:07:45.924Z,14.57
2018-11-12T14:10:15.830Z,17.40
2018-11-12T14:12:44.925Z,19.83
2018-11-12T14:15:15.456Z,19.87
2018-11-12T14:17:51.812Z,15.10
2018-11-12T14:20:21.227Z,15.50
2018-11-12T14:22:49.721Z,17.33
2018-11-12T14:25:19.310Z,22.17
2018-11-12T14:27:49.404Z,16.93
2018-11-12T14:30:19.441Z,12.63
2018-11-12T14:32:47.999Z,12.70
2018-11-12T14:35:16.596Z,13.93
2018-11-12T14:37:46.014Z,13.47
2018-11-12T14:40:15.607Z,12.87
2018-11-12T14:42:44.508Z,15.90
2018-11-12T14:45:15.450Z,13.87
2018-11-12T14:47:44.965Z,10.37
2018-11-12T14:50:13.630Z,13.97
2018-11-12T14:52:42.211Z,10.30
2018-11-12T14:55:12.210Z,16.77
2018-11-12T14:57:41.120Z,11.43
2018-11-12T15:00:17.050Z,10.47
2018-11-12T15:02:45.684Z,16.20
2018-11-12T15:05:14.975Z,13.90
2018-11-12T15:07:43.900Z,12.67
2018-11-12T15:10:13.482Z,15.90
2018-11-12T15:12:42.755Z,18.00
2018-11-12T15:15:12.163Z,10.80
2018-11-12T15:17:40.775Z,15.83
2018-11-12T15:20:10.997Z,8.93
2018-11-12T15:22:39.573Z,10.80
2018-11-12T15:25:12.436Z,10.67
2018-11-12T15:27:41.312Z,9.23
2018-11-12T15:30:12.257Z,17.83
2018-11-12T15:32:41.246Z,17.90
2018-11-12T15:35:10.634Z,13.30
2018-11-12T15:37:39.693Z,12.20
2018-11-12T15:40:09.154Z,12.97
2018-11-12T15:42:38.459Z,12.27
2018-11-12T15:45:09.917Z,22.53
2018-11-12T15:47:39.056Z,14.87
2018-11-12T15:50:10.545Z,11.37
2018-11-12T15:52:39.123Z,187.23
2018-11-12T15:55:08.136Z,45.80
2018-11-12T15:57:37.348Z,30.50
2018-11-12T16:00:07.969Z,13.87
2018-11-12T16:02:36.496Z,25.57
2018-11-12T16:05:06.038Z,19.97
2018-11-12T16:07:34.587Z,11.27
2018-11-12T16:10:03.140Z,9.03
2018-11-12T16:12:32.613Z,9.27
2018-11-12T16:15:01.329Z,8.57
2018-11-12T16:17:29.954Z,6.63
2018-11-12T16:19:58.658Z,7.60
2018-11-12T16:22:27.199Z,8.00
2018-11-12T16:24:55.824Z,11.23
2018-11-12T16:27:24.446Z,12.67
2018-11-12T16:29:52.982Z,9.07
2018-11-12T16:32:27.486Z,13.40
2018-11-12T16:34:56.569Z,17.20
2018-11-12T16:37:25.496Z,49.50
2018-11-12T16:39:54.058Z,43.20
2018-11-12T16:42:22.705Z,78.70
2018-11-12T16:44:51.610Z,52.03
2018-11-12T16:47:20.166Z,26.80
2018-11-12T16:49:48.820Z,10.20
2018-11-12T16:52:18.068Z,9.63
2018-11-12T16:54:46.690Z,7.53
2018-11-12T16:57:15.321Z,8.13
2018-11-12T16:59:44.300Z,9.20
2018-11-12T17:02:12.936Z,8.90
2018-11-12T17:04:41.525Z,7.60
2018-11-12T17:07:11.322Z,7.33
2018-11-12T17:09:39.892Z,12.97
2018-11-12T17:12:08.890Z,7.33
2018-11-12T17:14:37.382Z,10.60
2018-11-12T17:17:06.192Z,8.13
2018-11-12T17:19:34.712Z,7.93
2018-11-12T17:22:03.238Z,11.33
2018-11-12T17:24:31.744Z,8.13
2018-11-12T17:27:00.425Z,7.73
2018-11-12T17:29:28.980Z,9.90
2018-11-12T17:31:57.557Z,7.40
2018-11-12T17:34:26.184Z,8.40
2018-11-12T17:36:54.783Z,7.43
2018-11-12T17:39:23.732Z,8.60
2018-11-12T17:41:52.350Z,9.70
2018-11-12T17:44:20.899Z,8.93
2018-11-12T17:46:49.838Z,8.00
2018-11-12T17:49:18.919Z,7.30
2018-11-12T17:51:48.120Z,7.43
2018-11-12T17:54:16.719Z,9.70
2018-11-12T17:56:45.280Z,10.33
2018-11-12T17:59:13.864Z,7.83
2018-11-12T18:01:42.510Z,8.93
2018-11-12T18:04:11.145Z,9.20
2018-11-12T18:06:39.727Z,81.47
2018-11-12T18:09:10.068Z,17.40
2018-11-12T18:11:38.807Z,9.00
2018-11-12T18:16:43.974Z,8.93
2018-11-12T18:19:12.643Z,8.50
2018-11-12T18:21:41.212Z,11.07
2018-11-12T18:24:09.875Z,8.83
2018-11-12T18:26:38.388Z,10.03
2018-11-12T18:29:07.472Z,10.47
2018-11-12T18:31:36.148Z,9.93
2018-11-12T18:36:42.449Z,10.87
2018-11-12T18:39:11.159Z,10.63
2018-11-12T18:41:40.520Z,15.00
2018-11-12T18:44:09.086Z,11.13
2018-11-12T18:46:37.635Z,10.53
2018-11-12T18:49:07.057Z,11.10
2018-11-12T18:51:35.631Z,12.47
2018-11-12T18:54:04.239Z,9.50
2018-11-12T18:56:33.368Z,8.77
2018-11-12T18:59:01.897Z,10.67
2018-11-12T19:01:30.501Z,9.47
2018-11-12T19:03:59.512Z,12.43
2018-11-12T19:06:28.095Z,10.53
2018-11-12T19:08:56.700Z,9.90
2018-11-12T19:11:25.304Z,10.23
2018-11-12T19:13:53.849Z,11.63
2018-11-12T19:16:22.499Z,10.37
2018-11-12T19:18:51.379Z,9.60
2018-11-12T19:21:20.315Z,9.90
2018-11-12T19:23:48.843Z,10.50
2018-11-12T19:26:17.654Z,10.33
2018-11-12T19:28:46.607Z,10.73
2018-11-12T19:31:15.145Z,9.90
2018-11-12T19:33:43.680Z,11.70
2018-11-12T19:36:12.204Z,11.10
2018-11-12T19:38:40.749Z,11.23
2018-11-12T19:41:09.393Z,12.20
2018-11-12T19:43:38.283Z,11.20
2018-11-12T19:46:06.925Z,11.13
2018-11-12T19:48:36.122Z,12.30
2018-11-12T19:51:04.794Z,12.57
2018-11-12T19:53:33.645Z,11.83
2018-11-12T19:56:02.197Z,14.57
2018-11-12T19:58:31.381Z,13.53
2018-11-12T20:01:00.100Z,11.37
2018-11-12T20:03:28.716Z,12.87
2018-11-12T20:05:57.241Z,12.13
2018-11-12T20:08:26.132Z,13.00
2018-11-12T20:10:54.684Z,12.90
2018-11-12T20:13:23.331Z,12.67
2018-11-12T20:15:52.321Z,14.00
2018-11-12T20:18:20.941Z,12.13
2018-11-12T20:20:49.567Z,12.40
2018-11-12T20:23:18.116Z,13.77
2018-11-12T20:25:46.689Z,13.23
2018-11-12T20:28:15.265Z,13.57
2018-11-12T20:30:43.915Z,12.80
2018-11-12T20:33:12.474Z,12.93
2018-11-12T20:35:41.099Z,15.03
2018-11-12T20:38:09.641Z,14.57
2018-11-12T20:40:38.254Z,12.93
2018-11-12T20:43:06.804Z,13.87
2018-11-12T20:45:35.354Z,16.10
2018-11-12T20:48:04.732Z,14.93
2018-11-12T20:50:33.316Z,14.23
2018-11-12T20:53:01.981Z,14.63
2018-11-12T20:55:30.703Z,13.43
2018-11-12T20:57:59.257Z,14.63
2018-11-12T21:00:28.658Z,13.33
2018-11-12T21:02:57.356Z,14.37
2018-11-12T21:05:27.159Z,14.90
2018-11-12T21:07:55.686Z,13.93
2018-11-12T21:10:24.203Z,15.10
2018-11-12T21:12:52.978Z,15.67
2018-11-12T21:15:22.904Z,16.23
2018-11-12T21:17:51.860Z,16.17
2018-11-12T21:20:21.720Z,15.57
2018-11-12T21:22:50.320Z,16.37
2018-11-12T21:25:20.301Z,14.57
2018-11-12T21:27:48.908Z,16.37
2018-11-12T21:30:21.580Z,16.23
2018-11-12T21:32:50.250Z,17.67
2018-11-12T21:35:18.828Z,15.10
2018-11-12T21:37:47.938Z,17.23
2018-11-12T21:40:17.653Z,16.50
2018-11-12T21:42:46.397Z,16.00
2018-11-12T21:45:16.366Z,17.27
2018-11-12T21:47:45.138Z,15.47
2018-11-12T21:50:16.485Z,15.23
2018-11-12T21:52:45.162Z,15.60
2018-11-12T21:55:13.954Z,18.57
2018-11-12T21:57:43.053Z,17.27
2018-11-12T22:00:23.248Z,16.83
2018-11-12T22:03:07.084Z,18.30
2018-11-12T22:05:35.609Z,15.53
2018-11-12T22:08:05.290Z,15.23
2018-11-12T22:10:33.872Z,17.30
2018-11-12T22:13:02.495Z,14.97
2018-11-12T22:15:31.072Z,15.00
2018-11-12T22:17:59.616Z,13.80
2018-11-12T22:20:28.889Z,15.07
2018-11-12T22:22:57.498Z,16.37
2018-11-12T22:25:26.021Z,14.77
2018-11-12T22:27:55.309Z,13.90
2018-11-12T22:30:25.030Z,15.53
2018-11-12T22:32:54.138Z,15.33
2018-11-12T22:35:23.647Z,17.17
2018-11-12T22:37:52.173Z,14.77
2018-11-12T22:40:21.199Z,14.67
2018-11-12T22:42:50.636Z,17.13
2018-11-12T22:45:23.704Z,14.67
2018-11-12T22:47:52.378Z,14.67
2018-11-12T22:50:20.911Z,14.43
2018-11-12T22:52:49.533Z,13.67
2018-11-12T22:55:18.835Z,13.33
2018-11-12T22:57:47.927Z,13.97
2018-11-12T23:00:25.634Z,14.17
2018-11-12T23:02:54.524Z,12.63
2018-11-12T23:05:23.445Z,13.73
2018-11-12T23:07:52.510Z,13.70
2018-11-12T23:10:22.232Z,13.53
2018-11-12T23:12:50.777Z,13.57
2018-11-12T23:15:19.999Z,15.07
2018-11-12T23:17:48.576Z,13.10
2018-11-12T23:20:26.664Z,13.17
2018-11-12T23:22:55.327Z,14.53
2018-11-12T23:25:23.966Z,13.23
2018-11-12T23:27:53.052Z,15.03
2018-11-12T23:30:22.771Z,14.57
2018-11-12T23:32:51.353Z,12.63
2018-11-12T23:35:21.131Z,13.47
2018-11-12T23:37:50.156Z,12.83
2018-11-12T23:40:18.910Z,14.60
2018-11-12T23:42:48.019Z,13.10
2018-11-12T23:45:17.332Z,13.23
2018-11-12T23:47:45.822Z,13.80
2018-11-12T23:50:16.039Z,14.07
2018-11-12T23:52:45.457Z,14.27
2018-11-12T23:55:14.432Z,13.33
2018-11-12T23:57:43.224Z,14.07
